sensor_id;sensor_type;location;lat;lon;timestamp;temperature;humidity
28069;DHT22;15382;47.578;8.086;2023-11-22T00:04:55;6.70;99.90
28069;DHT22;15382;47.578;8.086;2023-11-22T00:14:55;6.70;99.90
28069;DHT22;15382;47.578;8.086;2023-11-22T00:24:56;6.50;99.90
28069;DHT22;15382;47.578;8.086;2023-11-22T00:34:57;6.60;99.90
28069;DHT22;15382;47.578;8.086;2023-11-22T00:44:58;6.60;99.90
28069;DHT22;15382;47.578;8.086;2023-11-22T00:54:58;6.50;99.90
28069;DHT22;15382;47.578;8.086;2023-11-22T01:04:59;6.50;99.90
28069;DHT22;15382;47.578;8.086;2023-11-22T01:15:00;6.50;99.90
28069;DHT22;15382;47.578;8.086;2023-11-22T01:25:01;6.60;99.90
28069;DHT22;15382;47.578;8.086;2023-11-22T01:35:02;6.70;99.90
28069;DHT22;15382;47.578;8.086;2023-11-22T01:45:04;6.60;99.90
28069;DHT22;15382;47.578;8.086;2023-11-22T01:55:05;6.50;99.90
28069;DHT22;15382;47.578;8.086;2023-11-22T02:05:06;6.60;99.90
28069;DHT22;15382;47.578;8.086;2023-11-22T02:15:07;6.60;99.90
28069;DHT22;15382;47.578;8.086;2023-11-22T02:25:08;6.50;99.90
28069;DHT22;15382;47.578;8.086;2023-11-22T02:35:10;6.60;99.90
28069;DHT22;15382;47.578;8.086;2023-11-22T02:45:10;6.50;99.90
28069;DHT22;15382;47.578;8.086;2023-11-22T02:55:11;6.50;99.90
28069;DHT22;15382;47.578;8.086;2023-11-22T03:05:12;6.30;99.90
28069;DHT22;15382;47.578;8.086;2023-11-22T03:15:14;6.30;99.90
28069;DHT22;15382;47.578;8.086;2023-11-22T03:25:15;6.30;99.90
28069;DHT22;15382;47.578;8.086;2023-11-22T03:35:15;6.30;99.90
28069;DHT22;15382;47.578;8.086;2023-11-22T03:45:17;6.50;99.90
28069;DHT22;15382;47.578;8.086;2023-11-22T03:55:18;6.60;99.90
28069;DHT22;15382;47.578;8.086;2023-11-22T04:05:18;6.60;99.90
28069;DHT22;15382;47.578;8.086;2023-11-22T04:15:20;6.60;99.90
28069;DHT22;15382;47.578;8.086;2023-11-22T04:25:21;6.60;99.90
28069;DHT22;15382;47.578;8.086;2023-11-22T04:35:22;6.60;99.90
28069;DHT22;15382;47.578;8.086;2023-11-22T04:45:23;6.60;99.90
28069;DHT22;15382;47.578;8.086;2023-11-22T04:55:27;6.50;99.90
28069;DHT22;15382;47.578;8.086;2023-11-22T05:05:28;6.50;99.90
28069;DHT22;15382;47.578;8.086;2023-11-22T05:15:29;6.40;99.90
28069;DHT22;15382;47.578;8.086;2023-11-22T05:25:30;6.60;99.90
28069;DHT22;15382;47.578;8.086;2023-11-22T05:35:30;6.50;99.90
28069;DHT22;15382;47.578;8.086;2023-11-22T05:45:31;6.30;99.90
28069;DHT22;15382;47.578;8.086;2023-11-22T05:55:32;6.20;99.90
28069;DHT22;15382;47.578;8.086;2023-11-22T06:05:32;6.00;99.90
28069;DHT22;15382;47.578;8.086;2023-11-22T06:15:33;5.90;99.90
28069;DHT22;15382;47.578;8.086;2023-11-22T06:25:34;5.90;99.90
28069;DHT22;15382;47.578;8.086;2023-11-22T06:35:36;6.00;99.90
28069;DHT22;15382;47.578;8.086;2023-11-22T06:45:37;6.10;99.90
28069;DHT22;15382;47.578;8.086;2023-11-22T06:55:38;6.30;99.90
28069;DHT22;15382;47.578;8.086;2023-11-22T07:05:39;6.40;99.90
28069;DHT22;15382;47.578;8.086;2023-11-22T07:15:40;6.30;99.90
28069;DHT22;15382;47.578;8.086;2023-11-22T07:25:41;6.30;99.90
28069;DHT22;15382;47.578;8.086;2023-11-22T07:35:44;6.20;99.90
28069;DHT22;15382;47.578;8.086;2023-11-22T07:45:46;6.10;99.90
28069;DHT22;15382;47.578;8.086;2023-11-22T07:55:49;6.10;99.90
28069;DHT22;15382;47.578;8.086;2023-11-22T08:05:49;6.00;99.90
28069;DHT22;15382;47.578;8.086;2023-11-22T08:15:50;6.10;99.90
28069;DHT22;15382;47.578;8.086;2023-11-22T08:25:51;6.40;99.90
28069;DHT22;15382;47.578;8.086;2023-11-22T08:35:53;6.40;99.90
28069;DHT22;15382;47.578;8.086;2023-11-22T08:45:59;6.50;99.90
28069;DHT22;15382;47.578;8.086;2023-11-22T08:56:00;6.50;99.90
28069;DHT22;15382;47.578;8.086;2023-11-22T09:06:00;6.50;99.90
28069;DHT22;15382;47.578;8.086;2023-11-22T09:16:01;6.90;99.90
28069;DHT22;15382;47.578;8.086;2023-11-22T09:26:05;6.30;99.90
28069;DHT22;15382;47.578;8.086;2023-11-22T09:36:06;6.30;99.90
28069;DHT22;15382;47.578;8.086;2023-11-22T09:46:08;6.10;99.90
28069;DHT22;15382;47.578;8.086;2023-11-22T09:56:11;6.20;99.90
28069;DHT22;15382;47.578;8.086;2023-11-22T10:06:14;6.10;99.90
28069;DHT22;15382;47.578;8.086;2023-11-22T10:16:16;6.20;99.90
28069;DHT22;15382;47.578;8.086;2023-11-22T10:26:17;6.30;99.90
28069;DHT22;15382;47.578;8.086;2023-11-22T10:36:18;6.30;99.90
28069;DHT22;15382;47.578;8.086;2023-11-22T10:46:20;6.10;99.90
28069;DHT22;15382;47.578;8.086;2023-11-22T10:56:22;6.30;99.90
28069;DHT22;15382;47.578;8.086;2023-11-22T11:06:24;6.40;99.90
28069;DHT22;15382;47.578;8.086;2023-11-22T11:16:28;6.40;99.90
28069;DHT22;15382;47.578;8.086;2023-11-22T11:26:31;6.30;99.90
28069;DHT22;15382;47.578;8.086;2023-11-22T11:36:32;6.20;99.90
28069;DHT22;15382;47.578;8.086;2023-11-22T11:46:33;6.00;99.90
28069;DHT22;15382;47.578;8.086;2023-11-22T11:56:34;6.00;99.90
28069;DHT22;15382;47.578;8.086;2023-11-22T12:06:34;6.00;99.90
28069;DHT22;15382;47.578;8.086;2023-11-22T12:16:37;6.00;99.90
28069;DHT22;15382;47.578;8.086;2023-11-22T12:26:39;6.00;99.90
28069;DHT22;15382;47.578;8.086;2023-11-22T12:36:42;5.90;99.90
28069;DHT22;15382;47.578;8.086;2023-11-22T12:46:46;5.90;99.90
28069;DHT22;15382;47.578;8.086;2023-11-22T12:56:50;5.90;99.90
28069;DHT22;15382;47.578;8.086;2023-11-22T13:06:51;5.20;99.90
28069;DHT22;15382;47.578;8.086;2023-11-22T13:16:52;4.70;99.90
28069;DHT22;15382;47.578;8.086;2023-11-22T13:26:53;4.70;99.90
28069;DHT22;15382;47.578;8.086;2023-11-22T13:36:54;4.40;99.90
28069;DHT22;15382;47.578;8.086;2023-11-22T13:46:55;4.40;99.90
28069;DHT22;15382;47.578;8.086;2023-11-22T13:56:56;4.20;99.90
28069;DHT22;15382;47.578;8.086;2023-11-22T14:06:57;4.20;99.90
28069;DHT22;15382;47.578;8.086;2023-11-22T14:16:58;4.40;99.90
28069;DHT22;15382;47.578;8.086;2023-11-22T14:27:01;4.60;99.90
28069;DHT22;15382;47.578;8.086;2023-11-22T14:37:02;4.50;99.90
28069;DHT22;15382;47.578;8.086;2023-11-22T14:47:03;4.00;99.90
28069;DHT22;15382;47.578;8.086;2023-11-22T14:57:13;4.00;99.90
28069;DHT22;15382;47.578;8.086;2023-11-22T15:07:13;3.90;99.90
28069;DHT22;15382;47.578;8.086;2023-11-22T15:17:15;4.00;99.90
28069;DHT22;15382;47.578;8.086;2023-11-22T15:27:15;4.00;99.90
28069;DHT22;15382;47.578;8.086;2023-11-22T15:37:16;4.00;99.90
28069;DHT22;15382;47.578;8.086;2023-11-22T15:47:17;3.80;99.90
28069;DHT22;15382;47.578;8.086;2023-11-22T15:57:17;3.80;99.90
28069;DHT22;15382;47.578;8.086;2023-11-22T16:07:18;3.80;99.90
28069;DHT22;15382;47.578;8.086;2023-11-22T16:17:21;3.80;99.90
28069;DHT22;15382;47.578;8.086;2023-11-22T16:27:22;3.70;99.90
28069;DHT22;15382;47.578;8.086;2023-11-22T16:37:22;3.90;99.90
28069;DHT22;15382;47.578;8.086;2023-11-22T16:47:23;3.90;99.90
28069;DHT22;15382;47.578;8.086;2023-11-22T16:57:24;4.00;99.90
28069;DHT22;15382;47.578;8.086;2023-11-22T17:07:25;4.00;99.90
28069;DHT22;15382;47.578;8.086;2023-11-22T17:17:25;4.00;99.90
28069;DHT22;15382;47.578;8.086;2023-11-22T17:27:28;4.00;99.90
28069;DHT22;15382;47.578;8.086;2023-11-22T17:37:29;4.00;99.90
28069;DHT22;15382;47.578;8.086;2023-11-22T17:47:30;3.80;99.90
28069;DHT22;15382;47.578;8.086;2023-11-22T17:57:32;3.90;99.90
28069;DHT22;15382;47.578;8.086;2023-11-22T18:07:33;3.80;99.90
28069;DHT22;15382;47.578;8.086;2023-11-22T18:17:34;3.80;99.90
28069;DHT22;15382;47.578;8.086;2023-11-22T18:27:34;3.80;99.90
28069;DHT22;15382;47.578;8.086;2023-11-22T18:37:35;3.60;99.90
28069;DHT22;15382;47.578;8.086;2023-11-22T18:47:36;3.50;99.90
28069;DHT22;15382;47.578;8.086;2023-11-22T18:57:36;3.60;99.90
28069;DHT22;15382;47.578;8.086;2023-11-22T19:07:37;3.60;99.90
28069;DHT22;15382;47.578;8.086;2023-11-22T19:17:38;3.50;99.90
28069;DHT22;15382;47.578;8.086;2023-11-22T19:27:39;3.30;99.90
28069;DHT22;15382;47.578;8.086;2023-11-22T19:37:40;3.30;99.90
28069;DHT22;15382;47.578;8.086;2023-11-22T19:47:40;3.20;99.90
28069;DHT22;15382;47.578;8.086;2023-11-22T19:57:43;3.10;99.90
28069;DHT22;15382;47.578;8.086;2023-11-22T20:07:43;3.00;99.90
28069;DHT22;15382;47.578;8.086;2023-11-22T20:17:44;3.10;99.90
28069;DHT22;15382;47.578;8.086;2023-11-22T20:27:45;3.20;99.90
28069;DHT22;15382;47.578;8.086;2023-11-22T20:37:46;3.20;99.90
28069;DHT22;15382;47.578;8.086;2023-11-22T20:47:46;3.10;99.90
28069;DHT22;15382;47.578;8.086;2023-11-22T20:57:47;3.00;99.90
28069;DHT22;15382;47.578;8.086;2023-11-22T21:07:48;3.10;99.90
28069;DHT22;15382;47.578;8.086;2023-11-22T21:17:49;3.20;99.90
28069;DHT22;15382;47.578;8.086;2023-11-22T21:27:49;3.10;99.90
28069;DHT22;15382;47.578;8.086;2023-11-22T21:37:52;3.10;99.90
28069;DHT22;15382;47.578;8.086;2023-11-22T21:47:52;3.10;99.90
28069;DHT22;15382;47.578;8.086;2023-11-22T21:57:53;3.10;99.90
28069;DHT22;15382;47.578;8.086;2023-11-22T22:07:54;3.00;99.90
28069;DHT22;15382;47.578;8.086;2023-11-22T22:17:54;2.90;99.90
28069;DHT22;15382;47.578;8.086;2023-11-22T22:27:55;2.90;99.90
28069;DHT22;15382;47.578;8.086;2023-11-22T22:37:57;3.00;99.90
28069;DHT22;15382;47.578;8.086;2023-11-22T22:47:58;3.00;99.90
28069;DHT22;15382;47.578;8.086;2023-11-22T22:57:58;3.00;99.90
28069;DHT22;15382;47.578;8.086;2023-11-22T23:07:59;3.00;99.90
28069;DHT22;15382;47.578;8.086;2023-11-22T23:18:00;3.00;99.90
28069;DHT22;15382;47.578;8.086;2023-11-22T23:28:00;3.00;99.90
28069;DHT22;15382;47.578;8.086;2023-11-22T23:38:01;2.80;99.90
28069;DHT22;15382;47.578;8.086;2023-11-22T23:48:02;2.90;99.90
28069;DHT22;15382;47.578;8.086;2023-11-22T23:58:03;2.80;99.90
